createdAt,value
2018-05-09T00:00:21.073Z,1.90
2018-05-09T00:02:49.322Z,2.63
2018-05-09T00:05:17.569Z,2.30
2018-05-09T00:07:45.845Z,2.30
2018-05-09T00:10:14.103Z,2.60
2018-05-09T00:12:42.360Z,2.60
2018-05-09T00:15:10.640Z,2.80
2018-05-09T00:17:38.889Z,3.10
2018-05-09T00:20:07.148Z,2.70
2018-05-09T00:22:35.424Z,3.07
2018-05-09T00:25:03.679Z,3.27
2018-05-09T00:27:31.928Z,3.10
2018-05-09T00:30:00.193Z,2.50
2018-05-09T00:32:28.440Z,3.37
2018-05-09T00:34:56.697Z,2.80
2018-05-09T00:37:25.737Z,2.47
2018-05-09T00:39:53.983Z,2.87
2018-05-09T00:42:22.228Z,2.50
2018-05-09T00:44:51.265Z,2.00
2018-05-09T00:47:19.521Z,2.43
2018-05-09T00:49:47.784Z,2.43
2018-05-09T00:52:16.817Z,2.20
2018-05-09T00:54:45.070Z,2.40
2018-05-09T00:57:13.329Z,2.53
2018-05-09T00:59:42.360Z,2.80
2018-05-09T01:02:10.637Z,2.97
2018-05-09T01:04:38.876Z,3.20
2018-05-09T01:07:07.930Z,3.30
2018-05-09T01:09:36.181Z,2.80
2018-05-09T01:12:04.433Z,2.83
2018-05-09T01:14:32.709Z,3.30
2018-05-09T01:17:00.987Z,2.90
2018-05-09T01:19:29.233Z,2.70
2018-05-09T01:21:57.601Z,2.47
2018-05-09T01:24:25.869Z,2.50
2018-05-09T01:26:54.135Z,2.77
2018-05-09T01:29:22.407Z,2.67
2018-05-09T01:31:50.661Z,2.63
2018-05-09T01:34:18.924Z,2.30
2018-05-09T01:36:47.358Z,2.90
2018-05-09T01:39:15.601Z,2.67
2018-05-09T01:41:43.858Z,3.20
2018-05-09T01:44:12.129Z,2.93
2018-05-09T01:46:40.387Z,2.90
2018-05-09T01:49:09.408Z,2.90
2018-05-09T01:51:37.724Z,2.30
2018-05-09T01:54:05.972Z,2.17
2018-05-09T01:56:34.254Z,2.70
2018-05-09T01:59:02.524Z,2.57
2018-05-09T02:01:30.769Z,2.30
2018-05-09T02:03:59.794Z,1.90
2018-05-09T02:06:28.072Z,2.20
2018-05-09T02:08:56.337Z,2.43
2018-05-09T02:11:24.585Z,2.50
2018-05-09T02:13:53.616Z,2.50
2018-05-09T02:16:21.866Z,2.40
2018-05-09T02:18:50.124Z,2.37
2018-05-09T02:21:19.161Z,2.70
2018-05-09T02:23:47.432Z,2.57
2018-05-09T02:26:15.684Z,2.90
2018-05-09T02:28:44.728Z,2.70
2018-05-09T02:31:12.993Z,2.00
2018-05-09T02:33:41.248Z,2.27
2018-05-09T02:36:09.512Z,2.23
2018-05-09T02:38:37.768Z,2.37
2018-05-09T02:41:06.044Z,2.50
2018-05-09T02:43:35.141Z,2.63
2018-05-09T02:46:03.353Z,2.83
2018-05-09T02:48:35.212Z,2.30
2018-05-09T02:51:03.473Z,2.40
2018-05-09T02:53:31.782Z,2.57
2018-05-09T02:56:00.056Z,2.60
2018-05-09T02:58:28.318Z,2.50
2018-05-09T03:00:56.572Z,2.23
2018-05-09T03:03:25.611Z,2.10
2018-05-09T03:05:53.866Z,2.90
2018-05-09T03:08:22.121Z,2.60
2018-05-09T03:10:52.285Z,3.40
2018-05-09T03:13:20.534Z,3.10
2018-05-09T03:15:48.781Z,3.57
2018-05-09T03:18:18.645Z,2.60
2018-05-09T03:20:46.903Z,2.90
2018-05-09T03:23:15.171Z,2.43
2018-05-09T03:25:43.441Z,2.50
2018-05-09T03:28:11.695Z,3.10
2018-05-09T03:30:40.705Z,2.80
2018-05-09T03:33:08.965Z,2.60
2018-05-09T03:35:37.992Z,3.07
2018-05-09T03:38:06.254Z,2.57
2018-05-09T03:40:34.522Z,2.90
2018-05-09T03:43:09.977Z,2.73
2018-05-09T03:45:38.246Z,3.07
2018-05-09T03:48:07.269Z,3.00
2018-05-09T03:50:35.520Z,2.70
2018-05-09T03:53:03.787Z,3.10
2018-05-09T03:55:32.816Z,2.67
2018-05-09T03:58:01.068Z,3.00
2018-05-09T04:00:29.341Z,3.07
2018-05-09T04:03:15.376Z,2.50
2018-05-09T04:06:01.401Z,3.10
2018-05-09T04:08:47.452Z,2.93
2018-05-09T04:11:15.815Z,2.90
2018-05-09T04:13:44.053Z,3.17
2018-05-09T04:16:13.081Z,2.90
2018-05-09T04:18:41.361Z,2.90
2018-05-09T04:21:09.636Z,3.13
2018-05-09T04:23:37.902Z,3.10
2018-05-09T04:26:06.169Z,3.47
2018-05-09T04:28:35.200Z,3.40
2018-05-09T04:31:03.497Z,3.40
2018-05-09T04:33:31.762Z,3.93
2018-05-09T04:36:00.022Z,3.40
2018-05-09T04:38:28.279Z,4.30
2018-05-09T04:40:56.549Z,3.30
2018-05-09T04:43:24.805Z,3.00
2018-05-09T04:45:55.073Z,3.20
2018-05-09T04:48:23.336Z,2.57
2018-05-09T04:50:51.609Z,2.80
2018-05-09T04:53:19.861Z,2.60
2018-05-09T04:55:48.905Z,3.20
2018-05-09T04:58:17.157Z,2.73
2018-05-09T05:00:45.425Z,2.80
2018-05-09T05:03:13.706Z,2.73
2018-05-09T05:05:41.969Z,2.43
2018-05-09T05:08:10.225Z,3.60
2018-05-09T05:10:39.297Z,2.70
2018-05-09T05:13:07.541Z,3.30
2018-05-09T05:15:35.798Z,2.70
2018-05-09T05:18:04.065Z,3.60
2018-05-09T05:20:33.076Z,3.13
2018-05-09T05:23:01.336Z,2.80
2018-05-09T05:25:29.602Z,3.20
2018-05-09T05:27:58.630Z,3.13
2018-05-09T05:30:26.878Z,3.33
2018-05-09T05:32:55.904Z,3.10
2018-05-09T05:35:24.162Z,3.43
2018-05-09T05:37:52.414Z,3.03
2018-05-09T05:40:21.442Z,3.07
2018-05-09T05:42:49.714Z,2.63
2018-05-09T05:45:18.087Z,3.33
2018-05-09T05:47:46.992Z,3.00
2018-05-09T05:50:15.240Z,3.37
2018-05-09T05:52:44.261Z,4.00
2018-05-09T05:55:12.532Z,3.17
2018-05-09T05:57:40.791Z,4.00
2018-05-09T06:00:09.802Z,3.17
2018-05-09T06:02:38.065Z,3.10
2018-05-09T06:05:06.324Z,2.70
2018-05-09T06:07:35.337Z,3.40
2018-05-09T06:10:07.065Z,3.33
2018-05-09T06:12:35.316Z,3.87
2018-05-09T06:15:03.573Z,3.00
2018-05-09T06:17:31.844Z,3.87
2018-05-09T06:20:00.099Z,3.37
2018-05-09T06:22:28.354Z,3.60
2018-05-09T06:24:57.425Z,3.20
2018-05-09T06:27:25.637Z,2.93
2018-05-09T06:29:53.937Z,3.50
2018-05-09T06:32:22.318Z,3.40
2018-05-09T06:34:50.558Z,3.50
2018-05-09T06:37:19.580Z,3.13
2018-05-09T06:39:47.840Z,3.10
2018-05-09T06:42:16.098Z,2.40
2018-05-09T06:44:45.109Z,3.20
2018-05-09T06:47:13.376Z,3.20
2018-05-09T06:49:42.402Z,4.10
2018-05-09T06:52:10.648Z,4.17
2018-05-09T06:54:38.909Z,3.33
2018-05-09T06:57:07.940Z,2.80
2018-05-09T06:59:36.181Z,3.43
2018-05-09T07:02:05.226Z,3.13
2018-05-09T07:04:33.474Z,3.40
2018-05-09T07:07:01.754Z,3.47
2018-05-09T07:09:30.043Z,2.80
2018-05-09T07:11:58.294Z,3.37
2018-05-09T07:14:26.536Z,3.00
2018-05-09T07:16:54.802Z,2.90
2018-05-09T07:19:23.053Z,2.87
2018-05-09T07:21:51.318Z,3.10
2018-05-09T07:24:19.586Z,3.20
2018-05-09T07:26:47.830Z,2.20
2018-05-09T07:29:16.844Z,2.43
2018-05-09T07:31:45.120Z,2.87
2018-05-09T07:34:13.380Z,2.43
2018-05-09T07:36:42.396Z,3.10
2018-05-09T07:39:10.672Z,2.60
2018-05-09T07:41:38.938Z,2.40
2018-05-09T07:44:10.936Z,2.43
2018-05-09T07:46:39.177Z,3.83
2018-05-09T07:49:08.198Z,4.63
2018-05-09T07:51:36.467Z,3.00
2018-05-09T07:54:04.721Z,2.13
2018-05-09T07:56:33.746Z,2.20
2018-05-09T07:59:02.015Z,2.10
2018-05-09T08:01:30.272Z,1.70
2018-05-09T08:03:58.534Z,2.30
2018-05-09T08:06:27.568Z,1.67
2018-05-09T08:08:55.838Z,2.00
2018-05-09T08:11:24.092Z,2.50
2018-05-09T08:13:52.367Z,1.90
2018-05-09T08:16:21.384Z,2.30
2018-05-09T08:18:49.632Z,2.17
2018-05-09T08:21:18.649Z,2.57
2018-05-09T08:23:46.926Z,2.10
2018-05-09T08:26:15.176Z,1.70
2018-05-09T08:28:44.209Z,1.40
2018-05-09T08:31:12.475Z,1.97
2018-05-09T08:33:40.741Z,2.50
2018-05-09T08:36:09.023Z,2.37
2018-05-09T08:38:37.263Z,2.00
2018-05-09T08:41:06.278Z,2.17
2018-05-09T08:43:34.574Z,2.27
2018-05-09T08:46:04.795Z,2.30
2018-05-09T08:48:33.043Z,2.50
2018-05-09T08:51:02.077Z,2.20
2018-05-09T08:53:30.330Z,2.30
2018-05-09T08:55:58.576Z,2.07
2018-05-09T08:58:27.617Z,2.10
2018-05-09T09:00:55.860Z,2.13
2018-05-09T09:03:24.878Z,2.00
2018-05-09T09:05:53.156Z,2.47
2018-05-09T09:08:21.409Z,2.33
2018-05-09T09:10:49.689Z,1.70
2018-05-09T09:13:18.693Z,2.00
2018-05-09T09:15:46.948Z,2.60
2018-05-09T09:18:15.976Z,1.80
2018-05-09T09:20:44.240Z,1.77
2018-05-09T09:23:12.489Z,2.17
2018-05-09T09:25:41.535Z,2.20
2018-05-09T09:28:09.800Z,2.37
2018-05-09T09:30:38.078Z,2.10
2018-05-09T09:33:06.318Z,1.50
2018-05-09T09:35:35.348Z,1.70
2018-05-09T09:38:03.605Z,2.00
2018-05-09T09:40:31.887Z,1.80
2018-05-09T09:43:00.173Z,1.90
2018-05-09T09:45:28.433Z,2.53
2018-05-09T09:47:56.717Z,1.90
2018-05-09T09:50:24.974Z,1.70
2018-05-09T09:52:53.221Z,2.00
2018-05-09T09:55:21.473Z,2.00
2018-05-09T09:57:49.749Z,1.30
2018-05-09T10:00:23.380Z,1.90
2018-05-09T10:02:52.421Z,1.60
2018-05-09T10:05:20.665Z,1.60
2018-05-09T10:07:49.690Z,1.50
2018-05-09T10:10:17.961Z,1.43
2018-05-09T10:12:46.216Z,1.80
2018-05-09T10:15:15.250Z,1.50
2018-05-09T10:17:43.505Z,1.40
2018-05-09T10:20:11.753Z,1.63
2018-05-09T10:22:40.773Z,1.57
2018-05-09T10:25:09.036Z,1.50
2018-05-09T10:27:37.330Z,1.70
2018-05-09T10:30:05.589Z,2.00
2018-05-09T10:32:33.857Z,1.40
2018-05-09T10:35:02.922Z,1.20
2018-05-09T10:37:31.231Z,1.30
2018-05-09T10:39:59.644Z,1.03
2018-05-09T10:42:27.932Z,1.57
2018-05-09T10:44:56.221Z,1.40
2018-05-09T10:47:24.581Z,1.33
2018-05-09T10:49:52.878Z,1.33
2018-05-09T10:52:21.174Z,1.53
2018-05-09T10:54:50.284Z,1.80
2018-05-09T10:57:18.682Z,1.40
2018-05-09T10:59:46.889Z,1.57
2018-05-09T11:02:15.153Z,1.80
2018-05-09T11:04:43.404Z,2.10
2018-05-09T11:07:11.667Z,1.67
2018-05-09T11:09:40.709Z,1.50
2018-05-09T11:12:08.964Z,1.77
2018-05-09T11:14:37.216Z,2.13
2018-05-09T11:17:06.248Z,2.00
2018-05-09T11:19:34.535Z,1.83
2018-05-09T11:22:02.782Z,1.83
2018-05-09T11:24:31.127Z,1.90
2018-05-09T11:26:59.304Z,1.60
2018-05-09T11:29:28.332Z,1.77
2018-05-09T11:31:56.606Z,2.00
2018-05-09T11:34:24.883Z,2.00
2018-05-09T11:36:53.139Z,2.40
2018-05-09T11:39:22.169Z,2.07
2018-05-09T11:41:50.483Z,1.80
2018-05-09T11:44:18.744Z,1.90
2018-05-09T11:46:47.214Z,1.80
2018-05-09T11:49:16.241Z,2.00
2018-05-09T11:51:44.501Z,2.00
2018-05-09T11:54:12.769Z,1.70
2018-05-09T11:56:41.020Z,1.90
2018-05-09T11:59:09.264Z,1.90
2018-05-09T12:01:37.538Z,1.60
2018-05-09T12:04:06.557Z,1.67
2018-05-09T12:06:34.805Z,1.77
2018-05-09T12:09:03.841Z,1.60
2018-05-09T12:11:32.105Z,1.57
2018-05-09T12:14:00.353Z,1.77
2018-05-09T12:16:29.406Z,1.97
2018-05-09T12:18:57.691Z,1.90
2018-05-09T12:21:25.947Z,1.70
2018-05-09T12:23:54.213Z,1.47
2018-05-09T12:26:22.464Z,1.63
2018-05-09T12:28:50.722Z,1.10
2018-05-09T12:31:20.398Z,1.50
2018-05-09T12:33:48.646Z,1.07
2018-05-09T12:36:16.905Z,1.17
2018-05-09T12:38:45.174Z,1.30
2018-05-09T12:41:13.418Z,1.60
2018-05-09T12:43:41.761Z,1.90
2018-05-09T12:46:10.071Z,1.73
2018-05-09T12:48:38.353Z,1.40
2018-05-09T12:51:06.599Z,1.30
2018-05-09T12:53:34.873Z,1.40
2018-05-09T12:56:03.123Z,1.33
2018-05-09T12:58:31.372Z,1.30
2018-05-09T13:01:00.488Z,1.40
2018-05-09T13:03:28.660Z,1.80
2018-05-09T13:05:56.928Z,1.37
2018-05-09T13:08:25.200Z,1.70
2018-05-09T13:10:54.216Z,1.17
2018-05-09T13:13:22.517Z,1.20
2018-05-09T13:15:50.758Z,1.27
2018-05-09T13:18:19.016Z,1.97
2018-05-09T13:20:48.036Z,1.20
2018-05-09T13:23:16.297Z,1.47
2018-05-09T13:25:44.627Z,1.30
2018-05-09T13:28:13.583Z,1.03
2018-05-09T13:30:41.845Z,1.13
2018-05-09T13:33:10.104Z,1.13
2018-05-09T13:35:39.128Z,1.13
2018-05-09T13:38:07.392Z,1.20
2018-05-09T13:40:35.660Z,1.27
2018-05-09T13:43:03.969Z,1.10
2018-05-09T13:45:32.229Z,1.20
2018-05-09T13:48:00.484Z,1.27
2018-05-09T13:50:29.521Z,1.03
2018-05-09T13:52:57.796Z,1.00
2018-05-09T13:55:26.037Z,1.10
2018-05-09T13:57:54.302Z,1.27
2018-05-09T14:00:23.345Z,1.13
2018-05-09T14:02:51.609Z,0.90
2018-05-09T14:05:19.861Z,0.80
2018-05-09T14:07:48.902Z,1.20
2018-05-09T14:10:17.145Z,0.90
2018-05-09T14:12:45.400Z,0.90
2018-05-09T14:15:14.432Z,1.00
2018-05-09T14:17:42.690Z,1.13
2018-05-09T14:20:10.943Z,0.87
2018-05-09T14:22:39.985Z,1.13
2018-05-09T14:25:08.278Z,1.13
2018-05-09T14:27:36.504Z,1.07
2018-05-09T14:30:04.768Z,0.80
2018-05-09T14:32:33.025Z,1.20
2018-05-09T14:35:01.297Z,1.37
2018-05-09T14:37:29.609Z,3.97
2018-05-09T14:39:57.860Z,9.50
2018-05-09T14:42:26.885Z,1.23
2018-05-09T14:44:55.165Z,1.10
2018-05-09T14:47:23.446Z,0.97
2018-05-09T14:49:51.694Z,1.00
2018-05-09T14:52:20.718Z,0.83
2018-05-09T14:54:48.971Z,0.60
2018-05-09T14:57:17.233Z,1.00
2018-05-09T14:59:46.305Z,1.07
2018-05-09T15:02:14.556Z,1.20
2018-05-09T15:04:42.812Z,1.00
2018-05-09T15:07:11.081Z,0.77
2018-05-09T15:09:39.351Z,1.00
2018-05-09T15:12:07.600Z,0.83
2018-05-09T15:14:36.627Z,0.90
2018-05-09T15:17:04.882Z,1.00
2018-05-09T15:19:33.952Z,1.10
2018-05-09T15:22:02.156Z,1.00
2018-05-09T15:24:30.412Z,1.00
2018-05-09T15:26:59.439Z,1.27
2018-05-09T15:29:27.705Z,1.03
2018-05-09T15:31:55.956Z,0.90
2018-05-09T15:34:25.093Z,1.00
2018-05-09T15:36:53.365Z,0.90
2018-05-09T15:39:21.617Z,1.00
2018-05-09T15:41:50.644Z,0.97
2018-05-09T15:44:18.922Z,1.00
2018-05-09T15:46:47.396Z,1.00
2018-05-09T15:49:15.716Z,0.97
2018-05-09T15:51:44.716Z,0.90
2018-05-09T15:54:12.974Z,0.80
2018-05-09T15:56:41.237Z,1.10
2018-05-09T15:59:09.509Z,1.00
2018-05-09T16:01:37.773Z,0.97
2018-05-09T16:04:06.050Z,1.17
2018-05-09T16:06:34.329Z,0.97
2018-05-09T16:09:03.420Z,1.00
2018-05-09T16:11:31.673Z,1.27
2018-05-09T16:13:59.945Z,0.93
2018-05-09T16:16:28.977Z,1.03
2018-05-09T16:18:57.220Z,1.20
2018-05-09T16:21:25.496Z,1.00
2018-05-09T16:23:53.749Z,1.37
2018-05-09T16:26:22.002Z,1.10
2018-05-09T16:28:50.266Z,1.10
2018-05-09T16:31:18.512Z,1.00
2018-05-09T16:33:46.773Z,1.00
2018-05-09T16:36:15.102Z,1.10
2018-05-09T16:38:43.304Z,1.30
2018-05-09T16:41:11.562Z,1.20
2018-05-09T16:43:39.822Z,0.77
2018-05-09T16:46:08.841Z,1.10
2018-05-09T16:48:37.092Z,1.20
2018-05-09T16:51:06.129Z,1.10
2018-05-09T16:53:35.150Z,0.90
2018-05-09T16:56:03.398Z,1.00
2018-05-09T16:58:32.430Z,1.20
2018-05-09T17:01:00.677Z,1.20
2018-05-09T17:03:29.696Z,1.07
2018-05-09T17:05:57.966Z,1.20
2018-05-09T17:08:26.224Z,1.30
2018-05-09T17:10:55.238Z,1.10
2018-05-09T17:13:23.507Z,0.77
2018-05-09T17:15:51.773Z,1.23
2018-05-09T17:18:20.046Z,1.40
2018-05-09T17:20:49.073Z,1.10
2018-05-09T17:23:17.352Z,1.30
2018-05-09T17:25:45.614Z,1.00
2018-05-09T17:28:13.881Z,1.20
2018-05-09T17:30:42.146Z,1.37
2018-05-09T17:33:10.437Z,1.27
2018-05-09T17:35:38.703Z,1.40
2018-05-09T17:38:06.952Z,1.43
2018-05-09T17:40:35.964Z,1.23
2018-05-09T17:43:05.077Z,1.37
2018-05-09T17:45:33.333Z,1.30
2018-05-09T17:48:02.443Z,1.20
2018-05-09T17:50:30.705Z,1.30
2018-05-09T17:52:59.729Z,1.03
2018-05-09T17:55:27.983Z,1.10
2018-05-09T17:57:56.257Z,1.20
2018-05-09T18:00:24.514Z,1.30
2018-05-09T18:02:53.529Z,1.53
2018-05-09T18:05:21.793Z,1.43
2018-05-09T18:07:50.813Z,1.33
2018-05-09T18:10:19.081Z,1.77
2018-05-09T18:12:47.348Z,1.63
2018-05-09T18:15:16.451Z,1.73
2018-05-09T18:17:44.699Z,1.80
2018-05-09T18:20:13.001Z,2.10
2018-05-09T18:22:41.273Z,1.70
2018-05-09T18:25:10.276Z,1.70
2018-05-09T18:27:38.545Z,2.00
2018-05-09T18:30:06.828Z,1.70
2018-05-09T18:32:35.080Z,1.80
2018-05-09T18:35:04.126Z,1.77
2018-05-09T18:37:32.481Z,2.17
2018-05-09T18:40:00.786Z,1.77
2018-05-09T18:42:29.868Z,1.63
2018-05-09T18:44:58.144Z,1.70
2018-05-09T18:47:26.520Z,1.23
2018-05-09T18:49:54.882Z,1.60
2018-05-09T18:52:23.166Z,1.73
2018-05-09T18:54:51.428Z,2.20
2018-05-09T18:57:19.712Z,2.10
2018-05-09T18:59:47.981Z,1.73
2018-05-09T19:02:17.004Z,1.53
2018-05-09T19:04:45.273Z,1.70
2018-05-09T19:07:13.532Z,1.80
2018-05-09T19:09:41.885Z,2.17
2018-05-09T19:12:11.002Z,2.33
2018-05-09T19:14:39.277Z,2.00
2018-05-09T19:17:07.777Z,1.77
2018-05-09T19:19:36.666Z,1.60
2018-05-09T19:22:05.250Z,1.97
2018-05-09T19:24:34.039Z,2.00
2018-05-09T19:27:02.547Z,2.10
2018-05-09T19:29:31.104Z,1.90
2018-05-09T19:32:00.512Z,2.03
2018-05-09T19:34:29.485Z,2.10
2018-05-09T19:36:58.395Z,2.50
2018-05-09T19:39:28.014Z,2.40
2018-05-09T19:41:58.006Z,2.30
2018-05-09T19:44:28.256Z,1.93
2018-05-09T19:46:58.031Z,1.77
2018-05-09T19:49:27.872Z,2.20
2018-05-09T19:51:58.456Z,2.17
2018-05-09T19:54:28.174Z,2.23
2018-05-09T19:56:58.309Z,1.83
2018-05-09T19:59:28.890Z,2.10
2018-05-09T20:01:58.982Z,2.63
2018-05-09T20:04:29.056Z,2.20
2018-05-09T20:06:59.111Z,1.93
2018-05-09T20:09:29.829Z,2.40
2018-05-09T20:12:00.094Z,2.30
2018-05-09T20:14:29.813Z,2.43
2018-05-09T20:17:00.427Z,2.47
2018-05-09T20:19:30.296Z,2.10
2018-05-09T20:22:00.171Z,2.40
2018-05-09T20:24:29.937Z,2.27
2018-05-09T20:27:00.766Z,2.00
2018-05-09T20:29:30.609Z,2.87
2018-05-09T20:32:17.964Z,2.10
2018-05-09T20:34:47.257Z,2.00
2018-05-09T20:37:16.514Z,2.30
2018-05-09T20:39:45.869Z,2.10
2018-05-09T20:42:15.081Z,1.80
2018-05-09T20:44:44.341Z,2.00
2018-05-09T20:47:13.738Z,4.27
2018-05-09T20:49:43.065Z,2.10
2018-05-09T20:52:12.395Z,2.60
2018-05-09T20:54:41.829Z,1.90
2018-05-09T20:57:12.006Z,2.10
2018-05-09T20:59:41.375Z,2.20
2018-05-09T21:02:10.846Z,2.60
2018-05-09T21:04:40.854Z,2.37
2018-05-09T21:07:10.193Z,1.90
2018-05-09T21:09:39.424Z,2.17
2018-05-09T21:12:11.075Z,2.30
2018-05-09T21:14:39.847Z,1.87
2018-05-09T21:17:08.597Z,2.00
2018-05-09T21:19:37.405Z,1.70
2018-05-09T21:22:06.597Z,1.77
2018-05-09T21:24:34.973Z,1.90
2018-05-09T21:27:04.179Z,2.37
2018-05-09T21:29:32.516Z,2.30
2018-05-09T21:32:00.776Z,2.33
2018-05-09T21:34:29.822Z,2.17
2018-05-09T21:36:58.093Z,1.80
2018-05-09T21:39:26.340Z,1.73
2018-05-09T21:41:55.369Z,2.03
2018-05-09T21:44:23.629Z,2.17
2018-05-09T21:46:51.876Z,2.33
2018-05-09T21:49:20.909Z,1.80
2018-05-09T21:51:49.269Z,2.20
2018-05-09T21:54:17.516Z,1.83
2018-05-09T21:56:46.636Z,1.83
2018-05-09T21:59:15.077Z,2.20
2018-05-09T22:01:43.324Z,1.97
2018-05-09T22:04:11.671Z,2.07
2018-05-09T22:06:39.948Z,1.90
2018-05-09T22:09:08.231Z,1.80
2018-05-09T22:11:36.509Z,2.00
2018-05-09T22:14:04.774Z,1.90
2018-05-09T22:16:33.050Z,2.03
2018-05-09T22:19:01.374Z,2.23
2018-05-09T22:21:29.577Z,2.20
2018-05-09T22:23:58.593Z,2.13
2018-05-09T22:26:26.870Z,2.03
2018-05-09T22:28:55.129Z,2.10
2018-05-09T22:31:24.248Z,2.17
2018-05-09T22:33:52.509Z,1.80
2018-05-09T22:36:21.532Z,2.40
2018-05-09T22:38:49.793Z,2.27
2018-05-09T22:41:18.112Z,2.00
2018-05-09T22:43:46.551Z,2.10
2018-05-09T22:46:14.714Z,2.50
2018-05-09T22:48:43.749Z,2.70
2018-05-09T22:51:12.005Z,3.00
2018-05-09T22:53:40.258Z,2.43
2018-05-09T22:56:09.282Z,2.93
2018-05-09T22:58:37.642Z,3.77
2018-05-09T23:01:05.905Z,3.00
2018-05-09T23:03:34.256Z,2.70
2018-05-09T23:06:02.577Z,3.10
2018-05-09T23:08:30.856Z,2.57
2018-05-09T23:10:59.120Z,2.60
2018-05-09T23:13:27.384Z,3.10
2018-05-09T23:15:56.449Z,3.00
2018-05-09T23:18:24.723Z,2.63
2018-05-09T23:20:52.992Z,2.87
2018-05-09T23:23:21.469Z,2.60
2018-05-09T23:25:49.729Z,2.67
2018-05-09T23:28:17.986Z,2.70
2018-05-09T23:30:46.257Z,2.60
2018-05-09T23:33:14.543Z,2.90
2018-05-09T23:35:42.808Z,2.87
2018-05-09T23:38:11.090Z,2.50
2018-05-09T23:40:39.447Z,2.70
2018-05-09T23:43:07.676Z,3.30
2018-05-09T23:45:35.923Z,3.07
2018-05-09T23:48:04.197Z,4.00
2018-05-09T23:50:32.461Z,2.63
2018-05-09T23:53:00.717Z,3.53
2018-05-09T23:55:29.751Z,3.40
2018-05-09T23:57:58.016Z,3.17
